Time;durP1;ratioP1;P1;durP2;ratioP2;P2;SDS_P1;SDS_P2;PMS_P1;PMS_P2;Temp;Humidity;BMP_temperature;BMP_pressure;BME280_temperature;BME280_humidity;BME280_pressure;Samples;Min_cycle;Max_cycle;Signal;HPM_P1;HPM_P2
2021/12/07 00:02:19;;;;;;;2.22;1.10;;;;;;;3.10;80.66;99679.63;4824512;29;20413;-68
2021/12/07 00:05:22;;;;;;;4.55;1.70;;;;;;;3.26;81.82;99685.09;4824653;29;20102;-68
2021/12/07 00:08:28;;;;;;;3.38;1.67;;;;;;;3.36;81.53;99668.34;4824599;29;20195;-68
2021/12/07 00:11:31;;;;;;;2.05;1.20;;;;;;;3.06;80.92;99659.09;4824950;29;20057;-68
2021/12/07 00:14:39;;;;;;;2.53;1.33;;;;;;;3.05;80.30;99665.19;4824318;29;20137;-68
2021/12/07 00:17:44;;;;;;;2.35;1.33;;;;;;;3.23;80.58;99659.38;4824239;29;20089;-68
2021/12/07 00:20:47;;;;;;;3.20;1.52;;;;;;;3.41;80.73;99661.25;4824045;29;20421;-68
2021/12/07 00:23:50;;;;;;;3.88;1.42;;;;;;;3.22;80.78;99649.91;4824400;29;20102;-68
2021/12/07 00:26:54;;;;;;;2.20;1.25;;;;;;;3.32;80.55;99655.59;4824459;29;20046;-68
2021/12/07 00:29:57;;;;;;;4.57;3.03;;;;;;;3.17;80.16;99651.84;4813018;29;20061;-68
2021/12/07 00:33:18;;;;;;;2.42;1.13;;;;;;;3.05;81.47;99657.44;4824061;29;20107;-68
2021/12/07 00:36:22;;;;;;;2.75;1.58;;;;;;;3.06;81.47;99657.38;4824349;29;20062;-68
2021/12/07 00:39:26;;;;;;;;;;;;;;;3.13;81.56;99665.78;4824561;29;20088;-68
2021/12/07 00:42:29;;;;;;;;;;;;;;;3.23;81.69;99646.44;4823740;29;19923;-68
2021/12/07 00:45:35;;;;;;;3.40;1.25;;;;;;;2.82;82.77;99656.50;4823321;29;19974;-68
2021/12/07 00:48:38;;;;;;;3.08;1.60;;;;;;;2.89;82.77;99657.13;4812414;29;20069;-68
2021/12/07 00:51:42;;;;;;;2.60;1.75;;;;;;;2.95;83.68;99654.34;4823987;29;20079;-68
2021/12/07 00:54:45;;;;;;;2.58;1.80;;;;;;;2.69;83.60;99650.06;4802205;29;20091;-68
2021/12/07 00:57:52;;;;;;;;;;;;;;;2.72;84.21;99649.97;4812992;29;20064;-68
2021/12/07 01:01:08;;;;;;;2.55;1.27;;;;;;;2.49;83.84;99664.50;4822454;29;20008;-68
2021/12/07 01:04:11;;;;;;;3.90;1.88;;;;;;;2.59;84.53;99654.69;4812500;29;20593;-68
2021/12/07 01:07:25;;;;;;;2.58;1.40;;;;;;;2.48;84.36;99667.94;4823676;29;20049;-68
2021/12/07 01:27:24;;;;;;;1.63;0.77;;;;;;;2.15;84.63;99680.19;4812150;29;20061;-68
2021/12/07 01:30:41;;;;;;;1.70;0.73;;;;;;;2.03;86.31;99678.84;4811830;29;20547;-68
2021/12/07 01:37:28;;;;;;;3.08;0.60;;;;;;;2.30;84.59;99684.03;4812142;29;20068;-68
2021/12/07 01:47:05;;;;;;;2.72;0.50;;;;;;;2.41;84.84;99692.25;4811739;29;20057;-68
2021/12/07 01:50:41;;;;;;;2.05;0.60;;;;;;;2.51;84.36;99703.97;4822876;29;20126;-68
2021/12/07 02:00:08;;;;;;;1.13;0.40;;;;;;;2.26;85.05;99719.38;4811472;29;20114;-68
2021/12/07 02:03:45;;;;;;;2.80;0.68;;;;;;;2.41;85.02;99718.06;4823223;29;20574;-68
2021/12/07 02:06:53;;;;;;;1.90;0.63;;;;;;;2.60;84.87;99712.31;4823342;29;20071;-68
2021/12/07 02:10:03;;;;;;;;;;;;;;;2.46;85.09;99713.63;4812019;29;20075;-68
2021/12/07 02:14:14;;;;;;;1.58;0.50;;;;;;;2.60;84.86;99714.91;4813601;29;20431;-68
2021/12/07 02:16:51;;;;;;;3.10;0.80;;;;;;;2.22;86.82;99715.22;4826638;29;20103;-68
2021/12/07 02:19:55;;;;;;;2.40;0.82;;;;;;;2.54;86.22;99719.34;4814482;29;20182;-68
2021/12/07 02:22:59;;;;;;;;;;;;;;;2.82;85.37;99718.47;4826056;29;20535;-68
2021/12/07 02:26:02;;;;;;;2.28;0.68;;;;;;;2.64;85.79;99729.38;4826654;29;20322;-68
2021/12/07 02:29:06;;;;;;;3.85;0.95;;;;;;;2.70;86.26;99727.44;4814485;29;20052;-68
2021/12/07 02:32:09;;;;;;;2.08;0.50;;;;;;;2.62;87.13;99733.78;4826235;29;20461;-68
2021/12/07 02:35:21;;;;;;;28.33;1.48;;;;;;;2.68;87.20;99738.72;4814873;29;20130;-68
2021/12/07 02:38:25;;;;;;;3.15;1.13;;;;;;;2.84;86.89;99732.19;4814902;29;20065;-68
2021/12/07 02:41:29;;;;;;;4.78;1.27;;;;;;;2.79;87.53;99744.38;4825993;29;20066;-68
2021/12/07 02:44:34;;;;;;;5.75;1.10;;;;;;;2.85;87.18;99749.34;4825151;29;20037;-68
2021/12/07 02:47:40;;;;;;;4.45;1.02;;;;;;;2.99;86.85;99749.72;4824615;29;20126;-68
2021/12/07 02:50:47;;;;;;;4.82;1.50;;;;;;;2.95;87.53;99761.06;4814466;29;20461;-68
2021/12/07 02:53:51;;;;;;;4.88;1.42;;;;;;;3.02;86.86;99759.94;4814409;29;20050;-68
2021/12/07 02:56:55;;;;;;;3.25;1.23;;;;;;;3.06;86.46;99768.44;4814192;29;20049;-68
2021/12/07 03:00:04;;;;;;;5.10;0.90;;;;;;;3.18;85.66;99778.34;4825737;29;20090;-68
2021/12/07 03:03:11;;;;;;;2.47;0.90;;;;;;;3.18;85.76;99782.69;4814651;29;20052;-68
2021/12/07 03:26:23;;;;;;;6.97;1.17;;;;;;;3.30;85.60;99818.44;4796011;29;20077;-68
2021/12/07 03:29:27;;;;;;;5.47;1.13;;;;;;;3.34;86.99;99814.84;4807389;29;20174;-68
2021/12/07 03:32:31;;;;;;;4.97;1.30;;;;;;;3.31;86.21;99816.69;4820261;29;20580;-68
2021/12/07 03:35:36;;;;;;;5.60;1.10;;;;;;;3.35;86.34;99824.31;4824266;29;20080;-68
2021/12/07 03:38:40;;;;;;;4.43;0.90;;;;;;;3.22;85.30;99831.63;4824312;29;20049;-68
2021/12/07 03:41:44;;;;;;;6.03;1.13;;;;;;;3.28;85.78;99842.63;4824076;29;20568;-68
2021/12/07 03:44:48;;;;;;;3.03;1.08;;;;;;;3.30;85.60;99852.03;4824946;29;20045;-68
2021/12/07 03:47:54;;;;;;;4.00;0.82;;;;;;;3.25;85.61;99851.31;4813881;29;20129;-67
2021/12/07 03:50:57;;;;;;;6.13;1.40;;;;;;;3.17;85.92;99846.41;4824032;29;20069;-68
2021/12/07 03:54:02;;;;;;;3.90;0.90;;;;;;;3.17;85.95;99861.09;4813585;29;20129;-68
2021/12/07 03:57:07;;;;;;;5.50;2.17;;;;;;;3.20;85.71;99869.56;4824215;29;20083;-68
2021/12/07 04:00:14;;;;;;;4.53;1.17;;;;;;;3.20;86.41;99869.56;4478759;29;10000417;-68
2021/12/07 04:03:23;;;;;;;5.53;1.98;;;;;;;3.18;86.47;99875.69;4821724;29;20142;-68
2021/12/07 04:06:26;;;;;;;6.43;1.30;;;;;;;3.15;87.04;99875.78;4822399;29;20425;-68
2021/12/07 04:09:31;;;;;;;;;;;;;;;3.25;86.68;99879.75;4821304;29;20585;-68
2021/12/07 04:12:35;;;;;;;6.47;1.63;;;;;;;3.21;86.14;99885.91;4818756;29;19927;-68
2021/12/07 04:15:38;;;;;;;5.25;1.40;;;;;;;3.19;85.24;99887.69;4819064;29;20089;-68
2021/12/07 04:18:41;;;;;;;9.20;1.58;;;;;;;3.19;85.98;99892.84;4808178;29;20530;-68
2021/12/07 04:21:46;;;;;;;6.22;1.80;;;;;;;3.36;85.07;99905.25;4817580;29;20065;-68
2021/12/07 04:24:49;;;;;;;;;;;;;;;3.36;85.40;99900.94;4807079;29;20109;-68
2021/12/07 04:27:55;;;;;;;7.22;1.88;;;;;;;3.42;84.61;99902.47;4817536;29;19927;-68
2021/12/07 04:30:58;;;;;;;10.10;2.90;;;;;;;3.39;85.46;99906.00;4818162;29;20084;-68
2021/12/07 04:34:02;;;;;;;9.35;2.40;;;;;;;3.46;84.95;99902.31;4820104;29;20053;-68
2021/12/07 04:37:05;;;;;;;11.40;1.83;;;;;;;3.54;84.01;99898.63;4820229;29;20110;-68
2021/12/07 04:40:13;;;;;;;7.53;2.42;;;;;;;3.54;84.44;99902.03;4820132;29;20366;-68
2021/12/07 04:43:17;;;;;;;8.32;2.20;;;;;;;3.49;83.77;99897.03;4819407;29;20516;-68
2021/12/07 04:46:30;;;;;;;11.35;2.15;;;;;;;3.61;82.92;99906.13;4821488;29;20049;-68
2021/12/07 04:49:56;;;;;;;12.65;2.35;;;;;;;3.65;82.82;99910.28;4820766;29;20117;-68
2021/12/07 04:59:42;;;;;;;11.18;2.50;;;;;;;3.67;82.64;99924.03;4820920;29;20118;-68
2021/12/07 05:02:52;;;;;;;11.85;2.28;;;;;;;3.72;82.64;99921.28;4821098;29;20154;-68
2021/12/07 05:05:55;;;;;;;15.40;2.75;;;;;;;3.66;82.75;99929.22;4820959;29;20107;-68
2021/12/07 05:09:20;;;;;;;9.75;2.00;;;;;;;3.69;81.94;99936.88;4820388;29;20094;-68
2021/12/07 05:12:42;;;;;;;10.32;1.92;;;;;;;3.73;81.91;99946.22;4817583;29;20121;-68
2021/12/07 05:38:20;;;;;;;15.88;2.63;;;;;;;3.77;81.23;99994.38;4817329;29;20102;-67
2021/12/07 05:41:24;;;;;;;15.10;2.95;;;;;;;3.69;82.09;100006.69;4819395;29;20688;-67
2021/12/07 05:44:28;;;;;;;13.15;3.53;;;;;;;3.62;82.98;100010.38;4819335;29;20210;-68
2021/12/07 05:47:31;;;;;;;10.52;2.53;;;;;;;3.75;80.27;100010.84;4818633;29;20078;-67
2021/12/07 05:50:38;;;;;;;7.57;2.20;;;;;;;3.81;80.18;100020.97;4818509;29;20126;-68
2021/12/07 05:53:41;;;;;;;12.27;2.65;;;;;;;3.83;80.16;100025.22;4818987;29;20086;-67
2021/12/07 05:56:45;;;;;;;14.65;2.60;;;;;;;3.85;79.82;100027.75;4819137;29;20053;-67
2021/12/07 05:59:48;;;;;;;12.05;3.22;;;;;;;3.88;79.66;100032.81;4819067;29;20053;-67
2021/12/07 06:02:56;;;;;;;8.43;2.30;;;;;;;3.78;80.82;100037.44;4818492;29;20107;-68
2021/12/07 06:06:03;;;;;;;11.05;2.97;;;;;;;3.82;79.84;100040.75;4831048;29;20097;-68
2021/12/07 06:09:07;;;;;;;9.88;2.13;;;;;;;3.87;79.93;100044.06;4836713;29;20086;-68
2021/12/07 06:12:10;;;;;;;;;;;;;;;3.88;79.93;100049.16;4836792;29;20106;-68
2021/12/07 06:15:17;;;;;;;6.75;1.55;;;;;;;3.96;80.68;100057.53;4837295;29;20061;-68
2021/12/07 06:18:36;;;;;;;8.77;2.15;;;;;;;3.90;79.98;100057.72;4832167;29;20069;-70
2021/12/07 06:21:40;;;;;;;16.23;3.58;;;;;;;3.90;80.46;100067.25;4818258;29;20574;-68
2021/12/07 06:24:44;;;;;;;11.80;3.75;;;;;;;3.85;79.96;100080.31;4817738;29;20053;-68
2021/12/07 06:27:48;;;;;;;9.40;2.25;;;;;;;3.81;80.55;100077.88;4818718;29;20054;-68
2021/12/07 06:30:51;;;;;;;9.88;1.75;;;;;;;3.78;80.61;100090.91;4818695;29;20065;-68
2021/12/07 06:33:54;;;;;;;11.95;4.95;;;;;;;3.76;79.45;100101.28;4825277;29;20049;-68
2021/12/07 06:37:01;;;;;;;8.75;3.78;;;;;;;3.77;80.00;100108.16;4836328;29;20061;-68
2021/12/07 06:40:09;;;;;;;11.38;3.17;;;;;;;3.82;80.68;100111.44;4836219;29;20074;-68
2021/12/07 06:43:15;;;;;;;9.13;2.60;;;;;;;3.74;80.45;100123.78;4800027;29;20095;-68
2021/12/07 06:46:18;;;;;;;15.13;4.18;;;;;;;3.70;81.81;100124.72;4800192;29;20061;-69
2021/12/07 06:49:21;;;;;;;;;;;;;;;3.75;82.04;100125.44;4816174;29;20142;-68
2021/12/07 06:52:25;;;;;;;13.70;6.30;;;;;;;3.66;82.38;100133.50;4818764;29;19964;-68
2021/12/07 06:55:28;;;;;;;26.23;10.63;;;;;;;3.68;81.35;100134.28;4818245;29;20058;-68
2021/12/07 06:58:32;;;;;;;19.35;9.38;;;;;;;3.86;81.55;100146.69;4819105;29;20056;-69
2021/12/07 07:01:36;;;;;;;21.10;10.32;;;;;;;3.84;81.74;100156.22;4809216;29;20057;-68
2021/12/07 07:04:39;;;;;;;28.77;8.80;;;;;;;3.93;81.33;100139.56;4820815;29;20049;-68
2021/12/07 07:07:43;;;;;;;10.55;3.40;;;;;;;3.86;81.85;100153.56;4821685;29;20069;-68
2021/12/07 07:10:47;;;;;;;15.88;4.18;;;;;;;3.82;82.13;100150.22;4821497;29;20049;-68
2021/12/07 07:13:50;;;;;;;;;;;;;;;3.76;81.93;100163.34;4821251;29;20107;-68
2021/12/07 07:16:54;;;;;;;19.00;3.65;;;;;;;3.79;80.87;100163.25;4828905;29;20279;-68
2021/12/07 07:19:57;;;;;;;13.82;3.28;;;;;;;3.81;80.74;100181.31;4821136;29;20049;-68
2021/12/07 07:23:00;;;;;;;10.10;2.70;;;;;;;3.67;80.99;100189.47;4809304;29;20065;-68
2021/12/07 07:26:05;;;;;;;9.60;2.95;;;;;;;3.72;80.58;100185.03;4821161;29;20366;-68
2021/12/07 07:29:08;;;;;;;9.00;2.40;;;;;;;3.84;80.65;100182.06;4820916;29;20075;-68
2021/12/07 07:32:11;;;;;;;11.77;5.18;;;;;;;3.83;80.17;100185.56;4819640;29;20065;-68
2021/12/07 07:35:15;;;;;;;;;;;;;;;3.78;80.36;100174.50;4821112;29;20103;-68
2021/12/07 07:38:20;;;;;;;8.68;2.67;;;;;;;3.84;80.22;100192.41;4821370;29;20094;-68
2021/12/07 07:41:24;;;;;;;12.55;3.13;;;;;;;3.77;79.59;100201.25;4821302;29;20063;-68
2021/12/07 07:44:27;;;;;;;10.35;2.33;;;;;;;3.86;79.48;100201.00;4820420;29;20057;-68
2021/12/07 07:47:30;;;;;;;;;;;;;;;3.69;80.76;100204.06;4820445;29;20409;-68
2021/12/07 07:50:33;;;;;;;9.00;2.72;;;;;;;3.79;79.38;100202.03;4820086;29;19928;-68
2021/12/07 07:53:37;;;;;;;12.63;2.63;;;;;;;3.82;78.90;100193.34;4809429;29;20053;-69
2021/12/07 07:56:41;;;;;;;11.18;2.63;;;;;;;3.80;78.77;100198.59;4809898;29;20110;-68
2021/12/07 07:59:45;;;;;;;15.93;3.17;;;;;;;3.75;78.83;100215.97;4827532;29;20113;-68
2021/12/07 08:02:48;;;;;;;;;;;;;;;3.80;78.88;100220.97;4840788;29;20106;-68
2021/12/07 08:05:52;;;;;;;8.43;3.10;;;;;;;3.74;79.10;100240.13;4842421;29;19956;-68
2021/12/07 08:08:59;;;;;;;9.43;2.55;;;;;;;3.73;78.82;100230.66;4485342;29;10000097;-68
2021/12/07 08:12:04;;;;;;;14.73;3.05;;;;;;;3.73;79.03;100230.66;4821508;29;20585;-68
2021/12/07 08:15:08;;;;;;;14.93;3.17;;;;;;;3.74;79.32;100242.72;4821693;29;20154;-68
2021/12/07 08:18:12;;;;;;;15.93;4.15;;;;;;;3.76;79.50;100240.06;4808893;29;20524;-68
2021/12/07 08:21:17;;;;;;;15.40;2.78;;;;;;;3.89;79.18;100242.28;4485877;29;10000379;-68
2021/12/07 08:24:21;;;;;;;11.85;3.30;;;;;;;3.82;79.14;100233.00;4834707;29;20057;-68
2021/12/07 08:27:26;;;;;;;7.28;1.65;;;;;;;3.87;79.04;100240.63;4818920;29;20096;-68
2021/12/07 08:30:30;;;;;;;8.77;2.65;;;;;;;3.92;78.76;100231.84;4824093;29;20469;-68
2021/12/07 08:33:33;;;;;;;;;;;;;;;3.88;79.00;100231.97;4837889;29;20124;-68
2021/12/07 08:36:37;;;;;;;10.25;2.40;;;;;;;3.86;79.12;100241.50;4838408;29;19975;-68
2021/12/07 08:39:40;;;;;;;8.82;2.30;;;;;;;4.04;79.15;100229.78;4838125;29;20053;-68
2021/12/07 08:42:44;;;;;;;13.40;3.33;;;;;;;3.93;79.28;100238.72;4826131;29;20467;-68
2021/12/07 08:45:49;;;;;;;12.43;4.88;;;;;;;3.80;79.10;100247.72;4832457;29;20424;-68
2021/12/07 08:48:52;;;;;;;11.45;2.33;;;;;;;3.78;79.01;100239.16;4836959;29;20134;-68
2021/12/07 08:51:55;;;;;;;9.98;2.03;;;;;;;3.88;78.54;100244.91;4826403;29;20130;-68
2021/12/07 09:01:30;;;;;;;9.82;2.20;;;;;;;3.83;78.76;100257.09;4822830;29;20049;-69
2021/12/07 09:04:34;;;;;;;14.55;2.53;;;;;;;3.80;78.79;100258.06;4823918;29;20040;-68
2021/12/07 09:07:37;;;;;;;9.02;2.25;;;;;;;3.87;78.90;100269.09;4823708;29;20053;-68
2021/12/07 09:10:40;;;;;;;13.65;5.93;;;;;;;3.97;78.45;100268.75;4823646;29;20114;-68
2021/12/07 09:13:44;;;;;;;23.38;5.55;;;;;;;3.84;78.95;100272.59;4823413;29;20138;-68
2021/12/07 09:16:48;;;;;;;22.35;5.45;;;;;;;3.82;78.18;100276.94;4823628;29;20083;-68
2021/12/07 09:19:52;;;;;;;9.90;2.65;;;;;;;3.89;78.06;100281.09;4823807;29;20111;-68
2021/12/07 09:22:55;;;;;;;14.93;3.00;;;;;;;3.82;78.00;100283.88;4823711;29;20074;-68
2021/12/07 09:25:58;;;;;;;15.07;4.15;;;;;;;3.83;78.29;100289.00;4823942;29;20057;-68
2021/12/07 09:29:02;;;;;;;;;;;;;;;3.81;78.50;100305.47;4823794;29;20126;-68
2021/12/07 09:32:05;;;;;;;15.40;4.45;;;;;;;3.93;78.57;100290.44;4823384;29;19969;-68
2021/12/07 09:35:09;;;;;;;;;;;;;;;4.02;78.14;100294.50;4823568;29;20053;-68
2021/12/07 09:38:12;;;;;;;12.55;5.10;;;;;;;3.95;78.22;100295.56;4823571;29;19927;-68
2021/12/07 09:41:18;;;;;;;8.68;2.40;;;;;;;3.94;78.29;100296.47;4822900;29;20048;-68
2021/12/07 09:44:22;;;;;;;12.88;2.92;;;;;;;4.00;77.80;100300.63;4822933;29;20069;-68
2021/12/07 09:47:25;;;;;;;8.27;2.95;;;;;;;3.88;77.99;100314.75;4823246;29;20604;-68
2021/12/07 09:50:29;;;;;;;;;;;;;;;3.91;77.54;100315.50;4823517;29;20107;-68
2021/12/07 09:53:34;;;;;;;7.55;2.15;;;;;;;3.94;77.77;100309.41;4823021;29;19928;-68
2021/12/07 09:56:39;;;;;;;5.80;2.22;;;;;;;3.91;77.47;100307.72;4822664;29;20089;-68
2021/12/07 09:59:42;;;;;;;15.85;4.60;;;;;;;3.91;76.81;100301.72;4823358;29;20077;-68
2021/12/07 10:02:45;;;;;;;7.32;2.08;;;;;;;3.94;76.81;100291.28;4823141;29;20436;-68
2021/12/07 10:05:49;;;;;;;12.35;2.88;;;;;;;4.04;76.89;100294.44;4823130;29;20049;-68
2021/12/07 10:08:53;;;;;;;8.02;3.08;;;;;;;4.11;76.10;100298.53;4823072;29;20099;-68
2021/12/07 10:11:56;;;;;;;;;;;;;;;4.24;75.84;100292.13;4823377;29;20053;-68
2021/12/07 10:15:06;;;;;;;10.93;2.38;;;;;;;4.08;75.75;100307.25;4822983;29;20098;-69
2021/12/07 10:18:13;;;;;;;11.35;1.77;;;;;;;4.10;75.44;100307.22;4822796;29;20089;-68
2021/12/07 10:21:27;;;;;;;12.88;3.00;;;;;;;4.19;75.38;100296.59;4823048;29;20066;-68
2021/12/07 10:24:38;;;;;;;13.05;2.38;;;;;;;4.27;75.93;100289.44;4822825;29;20591;-68
2021/12/07 10:27:46;;;;;;;16.48;4.95;;;;;;;4.51;74.94;100281.84;4822324;29;20080;-68
2021/12/07 10:30:50;;;;;;;12.98;4.57;;;;;;;4.59;74.35;100277.25;4822824;29;20618;-68
2021/12/07 10:34:00;;;;;;;10.73;2.45;;;;;;;4.57;73.74;100277.31;4824732;29;20432;-68
2021/12/07 10:37:15;;;;;;;23.23;9.18;;;;;;;4.65;73.55;100275.31;4826139;29;20138;-68
2021/12/07 10:40:20;;;;;;;33.25;14.90;;;;;;;4.53;74.03;100264.47;4826013;29;20763;-68
2021/12/07 10:43:41;;;;;;;10.75;3.78;;;;;;;4.62;74.21;100259.03;4826062;29;20041;-68
2021/12/07 10:46:52;;;;;;;13.05;5.85;;;;;;;4.60;74.11;100260.84;4815008;29;20057;-68
2021/12/07 10:50:00;;;;;;;16.23;7.00;;;;;;;4.61;74.09;100252.16;4825661;29;20061;-68
2021/12/07 10:53:03;;;;;;;18.30;7.72;;;;;;;4.75;74.47;100247.38;4825742;29;20081;-68
2021/12/07 10:56:34;;;;;;;12.35;4.07;;;;;;;4.76;73.85;100249.06;4824850;29;20049;-68
2021/12/07 10:59:39;;;;;;;14.95;3.78;;;;;;;4.82;73.31;100243.69;4825056;29;20053;-68
2021/12/07 11:02:52;;;;;;;18.52;8.70;;;;;;;4.93;72.80;100247.66;4839375;29;20102;-68
2021/12/07 11:05:55;;;;;;;10.57;3.90;;;;;;;4.93;71.68;100252.84;4839193;29;20478;-68
2021/12/07 11:08:58;;;;;;;;;;;;;;;4.84;71.09;100248.81;4836921;29;20144;-68
2021/12/07 11:12:09;;;;;;;17.88;7.20;;;;;;;4.77;71.73;100242.16;4803201;29;20390;-68
2021/12/07 11:15:22;;;;;;;22.25;10.52;;;;;;;4.69;70.96;100238.94;4821208;29;20067;-68
2021/12/07 11:18:36;;;;;;;14.25;6.30;;;;;;;4.62;69.53;100243.47;4820341;29;20058;-68
2021/12/07 11:21:43;;;;;;;24.63;9.45;;;;;;;4.77;69.84;100252.50;4820829;29;20080;-68
2021/12/07 11:24:47;;;;;;;9.15;3.70;;;;;;;4.68;68.00;100245.88;4484190;29;10000408;-69
2021/12/07 11:31:34;;;;;;;9.60;3.40;;;;;;;4.83;68.14;100227.25;4836232;29;20114;-68
2021/12/07 11:34:40;;;;;;;10.82;4.97;;;;;;;5.18;67.78;100235.56;4835839;29;20052;-68
2021/12/07 11:37:45;;;;;;;9.13;2.80;;;;;;;5.09;67.11;100220.34;4835838;29;20634;-68
2021/12/07 11:40:48;;;;;;;13.88;3.03;;;;;;;5.07;66.79;100229.91;4835735;29;20050;-68
2021/12/07 11:43:59;;;;;;;9.10;2.25;;;;;;;5.25;66.98;100223.25;4799507;29;20150;-69
2021/12/07 11:47:04;;;;;;;7.68;1.67;;;;;;;5.35;65.72;100215.06;4800019;29;20094;-68
2021/12/07 11:50:32;;;;;;;7.35;1.77;;;;;;;5.29;66.19;100215.28;4799458;29;20670;-69
2021/12/07 11:53:35;;;;;;;6.60;1.30;;;;;;;5.25;65.55;100198.16;4799008;29;20429;-68
2021/12/07 11:56:39;;;;;;;10.80;1.70;;;;;;;5.41;65.80;100197.63;4815362;29;20524;-68
2021/12/07 11:59:46;;;;;;;9.70;2.55;;;;;;;5.48;66.66;100186.13;4817381;29;20129;-68
2021/12/07 12:02:49;;;;;;;10.38;1.85;;;;;;;5.49;65.71;100190.41;4817915;29;20061;-68
2021/12/07 12:05:54;;;;;;;9.90;2.30;;;;;;;5.50;65.38;100173.94;4816594;29;20592;-68
2021/12/07 12:08:58;;;;;;;7.72;2.15;;;;;;;5.38;66.95;100176.97;4815676;29;20057;-68
2021/12/07 12:12:15;;;;;;;9.95;1.60;;;;;;;5.45;65.14;100174.09;4477180;29;10000067;-69
2021/12/07 12:15:21;;;;;;;12.30;4.45;;;;;;;5.49;65.79;100167.06;4814053;29;20048;-68
2021/12/07 12:19:02;;;;;;;9.00;1.65;;;;;;;5.53;64.26;100166.06;4817099;29;20141;-68
2021/12/07 12:22:14;;;;;;;9.98;3.17;;;;;;;5.55;64.26;100169.41;4823944;29;20102;-68
2021/12/07 12:25:21;;;;;;;8.60;2.10;;;;;;;5.63;64.68;100167.41;4823599;29;20516;-68
2021/12/07 12:28:32;;;;;;;10.18;2.33;;;;;;;5.49;62.99;100160.13;4823738;29;20057;-68
2021/12/07 12:31:52;;;;;;;9.20;1.38;;;;;;;5.28;62.51;100148.78;4824474;29;20057;-68
2021/12/07 12:34:57;;;;;;;11.95;3.30;;;;;;;5.24;63.36;100144.63;4824063;29;20524;-68
2021/12/07 12:38:01;;;;;;;6.93;2.58;;;;;;;5.24;62.97;100144.63;4823809;29;20077;-68
2021/12/07 12:41:10;;;;;;;5.80;1.30;;;;;;;5.26;63.20;100142.81;4824287;29;20049;-68
2021/12/07 12:44:15;;;;;;;4.88;1.33;;;;;;;5.31;63.27;100140.91;4824084;29;20049;-68
2021/12/07 12:47:19;;;;;;;7.32;1.00;;;;;;;5.49;63.33;100135.97;4823142;29;20052;-68
2021/12/07 12:50:30;;;;;;;6.78;1.23;;;;;;;5.27;62.80;100128.13;4823875;29;20065;-68
2021/12/07 12:53:34;;;;;;;9.13;2.03;;;;;;;5.19;63.64;100130.97;4824137;29;20137;-68
2021/12/07 12:56:39;;;;;;;14.27;4.28;;;;;;;5.09;63.47;100130.47;4823611;29;20053;-68
2021/12/07 12:59:45;;;;;;;9.73;2.83;;;;;;;5.08;62.67;100133.13;4823979;29;20065;-68
2021/12/07 13:03:07;;;;;;;15.20;6.20;;;;;;;5.07;63.75;100132.28;4824007;29;20106;-68
2021/12/07 13:06:17;;;;;;;21.10;8.43;;;;;;;4.97;62.14;100130.06;4823585;29;20129;-68
2021/12/07 13:09:28;;;;;;;8.57;3.47;;;;;;;5.13;61.37;100126.03;4823601;29;20110;-68
2021/12/07 13:12:40;;;;;;;15.15;4.68;;;;;;;5.13;62.53;100118.25;4823184;29;20420;-68
2021/12/07 13:15:44;;;;;;;13.00;4.03;;;;;;;5.20;62.01;100117.16;4823496;29;20159;-68
2021/12/07 13:18:48;;;;;;;8.63;2.53;;;;;;;5.29;61.31;100115.94;4823726;29;20111;-68
2021/12/07 13:21:51;;;;;;;14.50;2.17;;;;;;;5.47;62.46;100120.44;4823200;29;20553;-68
2021/12/07 13:24:57;;;;;;;;;;;;;;;5.45;63.23;100122.22;4823934;29;20421;-68
2021/12/07 13:28:02;;;;;;;12.77;4.38;;;;;;;5.38;62.22;100114.75;4822287;29;19954;-68
2021/12/07 13:31:09;;;;;;;9.00;2.72;;;;;;;5.49;65.48;100110.03;4823629;29;20085;-68
2021/12/07 13:34:16;;;;;;;21.13;2.05;;;;;;;5.33;64.00;100105.41;4811818;29;20079;-68
2021/12/07 13:37:20;;;;;;;4.82;1.13;;;;;;;5.44;67.74;100109.34;4823704;29;20056;-68
2021/12/07 13:40:24;;;;;;;7.88;1.60;;;;;;;5.32;64.60;100101.09;4822991;29;20103;-68
2021/12/07 13:43:30;;;;;;;10.98;2.00;;;;;;;5.49;64.43;100104.84;4805040;29;20046;-68
2021/12/07 13:46:36;;;;;;;10.05;2.30;;;;;;;5.65;65.99;100098.16;4821771;29;20045;-68
2021/12/07 13:49:45;;;;;;;7.40;1.80;;;;;;;5.62;68.42;100098.28;4822753;29;20061;-68
2021/12/07 13:52:51;;;;;;;7.63;1.10;;;;;;;5.66;69.30;100086.03;4823134;29;20061;-68
2021/12/07 13:55:55;;;;;;;9.82;1.35;;;;;;;5.64;69.55;100090.41;4823401;29;20058;-68
2021/12/07 13:59:03;;;;;;;7.28;2.65;;;;;;;5.54;69.67;100076.97;4818581;29;20536;-68
2021/12/07 14:02:07;;;;;;;10.85;3.05;;;;;;;5.45;65.80;100069.53;4818037;29;20515;-68
2021/12/07 14:05:17;;;;;;;7.70;1.10;;;;;;;5.43;71.31;100069.63;4817702;29;20130;-68
2021/12/07 14:08:20;;;;;;;5.80;1.30;;;;;;;5.55;71.99;100063.09;4810073;29;20555;-68
2021/12/07 14:11:23;;;;;;;12.75;2.63;;;;;;;5.48;72.60;100061.63;4819304;29;20053;-68
2021/12/07 14:14:28;;;;;;;13.23;1.90;;;;;;;5.43;72.33;100053.22;4815249;29;20061;-68
2021/12/07 14:17:43;;;;;;;9.05;1.90;;;;;;;5.45;70.36;100048.78;4811984;29;20106;-68
2021/12/07 14:20:52;;;;;;;11.88;2.78;;;;;;;5.26;67.39;100033.94;4816313;29;20078;-68
2021/12/07 14:24:05;;;;;;;5.15;1.63;;;;;;;5.21;66.98;100030.69;4819274;29;20179;-68
2021/12/07 14:27:09;;;;;;;10.18;1.50;;;;;;;5.15;66.62;100024.91;4818642;29;20500;-68
2021/12/07 14:30:15;;;;;;;11.48;1.88;;;;;;;5.18;65.85;100015.25;4819028;29;20134;-68
2021/12/07 14:33:19;;;;;;;9.27;1.77;;;;;;;5.15;65.53;100010.19;4836280;29;20088;-68
2021/12/07 14:36:31;;;;;;;12.00;6.72;;;;;;;5.09;64.87;100010.44;4827310;29;20656;-69
2021/12/07 14:39:40;;;;;;;12.63;2.03;;;;;;;5.07;64.87;100009.63;4819232;29;20089;-68
2021/12/07 14:42:43;;;;;;;5.97;2.15;;;;;;;5.15;67.31;100010.19;4807718;29;20107;-68
2021/12/07 14:45:46;;;;;;;;;;;;;;;5.27;69.26;99998.53;4821965;29;20052;-68
2021/12/07 14:48:52;;;;;;;10.50;2.45;;;;;;;5.12;70.76;99994.75;4822293;29;19924;-68
2021/12/07 14:51:55;;;;;;;12.77;3.47;;;;;;;5.26;69.64;99997.66;4822547;29;20114;-68
2021/12/07 14:54:59;;;;;;;;;;;;;;;5.21;63.30;99986.63;4822886;29;20477;-68
2021/12/07 14:58:04;;;;;;;9.93;3.97;;;;;;;5.33;63.25;99982.72;4822643;29;19983;-68
2021/12/07 15:01:23;;;;;;;9.45;3.28;;;;;;;5.16;70.14;99985.94;4822513;29;20065;-68
2021/12/07 15:04:27;;;;;;;10.68;1.95;;;;;;;5.12;70.58;99967.09;4830125;29;20048;-68
2021/12/07 15:07:33;;;;;;;9.50;2.22;;;;;;;5.06;71.22;99964.72;4832474;29;20074;-69
2021/12/07 15:10:36;;;;;;;5.22;1.52;;;;;;;4.92;72.63;99967.03;4836206;29;20073;-69
2021/12/07 15:13:40;;;;;;;6.63;1.60;;;;;;;4.77;73.75;99973.63;4825242;29;20053;-68
2021/12/07 15:16:47;;;;;;;7.13;1.58;;;;;;;4.67;74.09;99974.84;4836362;29;20170;-68
2021/12/07 15:19:50;;;;;;;7.22;1.30;;;;;;;4.68;74.11;99961.00;4837995;29;20145;-68
2021/12/07 15:22:54;;;;;;;;;;;;;;;4.58;74.29;99964.84;4839680;29;20615;-68
2021/12/07 15:25:58;;;;;;;7.40;1.60;;;;;;;4.51;74.80;99968.56;4839257;29;19996;-69
2021/12/07 15:29:06;;;;;;;10.75;1.20;;;;;;;4.60;74.89;99976.00;4839090;29;20117;-69
2021/12/07 15:32:11;;;;;;;7.18;1.30;;;;;;;4.64;74.09;99968.03;4838758;29;20166;-68
2021/12/07 15:35:25;;;;;;;7.57;1.50;;;;;;;4.51;74.66;99953.03;4827978;29;20112;-69
2021/12/07 15:38:29;;;;;;;4.95;1.27;;;;;;;4.29;76.43;99956.38;4824346;29;20049;-68
2021/12/07 15:41:32;;;;;;;;;;;;;;;4.29;76.73;99945.19;4825398;29;20126;-68
2021/12/07 15:44:43;;;;;;;8.45;1.92;;;;;;;4.26;76.50;99934.94;4824937;29;20422;-68
2021/12/07 15:47:48;;;;;;;10.95;1.85;;;;;;;4.11;77.27;99928.56;4824953;29;20057;-68
2021/12/07 15:50:51;;;;;;;7.35;1.58;;;;;;;4.18;77.29;99922.28;4824944;29;20539;-68
2021/12/07 15:53:56;;;;;;;;;;;;;;;4.13;77.41;99913.81;4825388;29;20061;-68
2021/12/07 15:57:02;;;;;;;8.52;1.77;;;;;;;3.93;76.89;99907.63;4824892;29;19923;-69
2021/12/07 16:00:06;;;;;;;7.00;1.33;;;;;;;3.88;77.11;99898.31;4824940;29;20107;-68
2021/12/07 16:03:26;;;;;;;7.03;1.50;;;;;;;3.77;77.55;99888.34;4814240;29;20361;-68
2021/12/07 16:06:29;;;;;;;6.32;1.70;;;;;;;3.77;77.33;99877.19;4824515;29;20110;-68
2021/12/07 16:09:32;;;;;;;6.53;1.83;;;;;;;3.74;77.01;99867.78;4824716;29;20048;-68
2021/12/07 16:12:36;;;;;;;;;;;;;;;3.63;77.15;99856.94;4825158;29;20187;-68
2021/12/07 16:16:01;;;;;;;6.22;1.80;;;;;;;3.58;77.37;99848.53;4824523;29;19928;-68
2021/12/07 16:19:06;;;;;;;5.68;1.38;;;;;;;3.49;76.92;99845.34;4824431;29;20057;-68